createdAt,value
2019-03-29T00:00:56.422Z,14.31
2019-03-29T00:03:29.800Z,14.31
2019-03-29T00:06:03.263Z,14.31
2019-03-29T00:08:36.629Z,14.27
2019-03-29T00:11:10.082Z,14.24
2019-03-29T00:13:43.543Z,14.23
2019-03-29T00:16:16.880Z,14.22
2019-03-29T00:18:50.337Z,14.22
2019-03-29T00:21:23.721Z,14.20
2019-03-29T00:24:06.670Z,14.15
2019-03-29T00:26:32.231Z,14.13
2019-03-29T00:29:07.090Z,14.14
2019-03-29T00:31:40.497Z,14.14
2019-03-29T00:34:13.889Z,14.11
2019-03-29T00:36:48.204Z,14.11
2019-03-29T00:39:21.546Z,14.09
2019-03-29T00:41:54.998Z,14.06
2019-03-29T00:44:28.434Z,14.05
2019-03-29T00:47:01.749Z,14.05
2019-03-29T00:49:35.226Z,14.05
2019-03-29T00:52:08.578Z,14.06
2019-03-29T00:54:41.973Z,14.05
2019-03-29T00:57:15.410Z,14.03
2019-03-29T00:59:48.856Z,14.04
2019-03-29T01:02:22.253Z,14.03
2019-03-29T01:04:55.597Z,14.00
2019-03-29T01:07:28.966Z,14.00
2019-03-29T01:10:02.389Z,13.97
2019-03-29T01:12:35.772Z,13.97
2019-03-29T01:15:09.905Z,13.96
2019-03-29T01:17:43.389Z,13.97
2019-03-29T01:20:16.933Z,13.95
2019-03-29T01:22:50.260Z,13.91
2019-03-29T01:25:23.707Z,13.92
2019-03-29T01:27:57.126Z,13.92
2019-03-29T01:30:30.499Z,13.92
2019-03-29T01:33:03.817Z,13.93
2019-03-29T01:35:37.254Z,13.91
2019-03-29T01:38:21.189Z,13.91
2019-03-29T01:40:45.894Z,13.90
2019-03-29T01:43:19.253Z,13.90
2019-03-29T01:45:52.657Z,13.89
2019-03-29T01:48:26.143Z,13.89
2019-03-29T01:50:59.585Z,13.88
2019-03-29T01:53:32.973Z,13.88
2019-03-29T01:56:06.383Z,13.87
2019-03-29T01:58:39.730Z,13.85
2019-03-29T02:01:13.246Z,13.85
2019-03-29T02:03:46.632Z,13.82
2019-03-29T02:06:20.353Z,13.82
2019-03-29T02:08:53.819Z,13.81
2019-03-29T02:11:27.258Z,13.81
2019-03-29T02:14:00.634Z,13.81
2019-03-29T02:16:33.963Z,13.78
2019-03-29T02:19:07.336Z,13.80
2019-03-29T02:21:40.670Z,13.77
2019-03-29T02:24:14.219Z,13.73
2019-03-29T02:26:47.537Z,13.75
2019-03-29T02:29:20.974Z,13.75
2019-03-29T02:31:54.360Z,13.75
2019-03-29T02:34:27.812Z,13.77
2019-03-29T02:37:02.284Z,13.78
2019-03-29T02:39:36.178Z,13.77
2019-03-29T02:42:09.601Z,13.76
2019-03-29T02:44:42.994Z,13.74
2019-03-29T02:47:16.453Z,13.73
2019-03-29T02:49:49.815Z,13.72
2019-03-29T02:52:23.211Z,13.73
2019-03-29T02:54:56.637Z,13.74
2019-03-29T02:57:30.062Z,13.71
2019-03-29T03:00:05.085Z,13.72
2019-03-29T03:02:38.520Z,13.71
2019-03-29T03:05:12.141Z,13.67
2019-03-29T03:07:45.639Z,13.66
2019-03-29T03:10:19.218Z,13.66
2019-03-29T03:12:52.666Z,13.67
2019-03-29T03:15:26.133Z,13.68
2019-03-29T03:17:59.587Z,13.68
2019-03-29T03:20:33.046Z,13.65
2019-03-29T03:23:06.566Z,13.68
2019-03-29T03:25:39.960Z,13.61
2019-03-29T03:28:13.395Z,13.60
2019-03-29T03:30:46.870Z,13.55
2019-03-29T03:33:20.368Z,13.56
2019-03-29T03:35:53.891Z,13.57
2019-03-29T03:38:27.312Z,13.59
2019-03-29T03:41:00.899Z,13.57
2019-03-29T03:43:34.317Z,13.52
2019-03-29T03:46:07.844Z,13.55
2019-03-29T03:48:41.347Z,13.53
2019-03-29T03:51:15.083Z,13.53
2019-03-29T03:53:48.501Z,13.56
2019-03-29T03:56:22.007Z,13.58
2019-03-29T03:58:55.956Z,13.58
2019-03-29T04:01:29.419Z,13.57
2019-03-29T04:04:02.872Z,13.60
2019-03-29T04:06:36.266Z,13.58
2019-03-29T04:09:09.684Z,13.61
2019-03-29T04:11:43.157Z,13.61
2019-03-29T04:14:16.615Z,13.60
2019-03-29T04:16:50.121Z,13.60
2019-03-29T04:19:23.579Z,13.59
2019-03-29T04:21:57.099Z,13.58
2019-03-29T04:24:30.536Z,13.55
2019-03-29T04:27:03.966Z,13.55
2019-03-29T04:29:37.415Z,13.53
2019-03-29T04:32:10.894Z,13.53
2019-03-29T04:34:44.421Z,13.56
2019-03-29T04:37:18.056Z,13.56
2019-03-29T04:40:06.375Z,13.48
2019-03-29T04:42:26.696Z,13.47
2019-03-29T04:45:00.494Z,13.45
2019-03-29T04:47:34.034Z,13.45
2019-03-29T04:50:07.595Z,13.43
2019-03-29T04:52:41.131Z,13.41
2019-03-29T04:55:14.736Z,13.46
2019-03-29T04:57:48.202Z,13.39
2019-03-29T05:00:21.651Z,13.40
2019-03-29T05:02:55.038Z,13.44
2019-03-29T05:05:28.640Z,13.45
2019-03-29T05:08:02.070Z,13.44
2019-03-29T05:10:35.587Z,13.46
2019-03-29T05:13:09.364Z,13.47
2019-03-29T05:15:42.871Z,13.47
2019-03-29T05:18:16.355Z,13.50
2019-03-29T05:20:49.833Z,13.52
2019-03-29T05:23:23.232Z,13.51
2019-03-29T05:25:56.645Z,13.51
2019-03-29T05:28:30.249Z,13.53
2019-03-29T05:31:03.694Z,13.53
2019-03-29T05:33:37.094Z,13.56
2019-03-29T05:36:10.471Z,13.57
2019-03-29T05:38:43.962Z,13.57
2019-03-29T05:41:17.362Z,13.56
2019-03-29T05:43:50.842Z,13.55
2019-03-29T05:46:24.257Z,13.58
2019-03-29T05:48:57.754Z,13.57
2019-03-29T05:51:31.099Z,13.55
2019-03-29T05:54:04.727Z,13.58
2019-03-29T05:56:38.249Z,13.56
2019-03-29T05:59:11.781Z,13.58
2019-03-29T06:01:45.207Z,13.61
2019-03-29T06:04:18.777Z,13.67
2019-03-29T06:06:52.199Z,13.71
2019-03-29T06:09:25.808Z,13.71
2019-03-29T06:11:59.320Z,13.71
2019-03-29T06:14:32.900Z,13.71
2019-03-29T06:17:06.345Z,13.77
2019-03-29T06:19:39.844Z,13.82
2019-03-29T06:22:13.263Z,13.88
2019-03-29T06:24:46.763Z,13.85
2019-03-29T06:27:20.248Z,13.80
2019-03-29T06:29:53.783Z,13.88
2019-03-29T06:32:27.155Z,13.96
2019-03-29T06:35:01.138Z,14.02
2019-03-29T06:37:35.649Z,14.06
2019-03-29T06:40:12.213Z,14.12
2019-03-29T06:42:45.694Z,14.18
2019-03-29T06:45:19.179Z,14.26
2019-03-29T06:47:52.669Z,14.33
2019-03-29T06:50:26.158Z,14.37
2019-03-29T06:52:59.685Z,14.49
2019-03-29T06:55:33.165Z,14.59
2019-03-29T06:58:06.666Z,14.51
2019-03-29T07:00:40.109Z,14.64
2019-03-29T07:03:13.537Z,14.65
2019-03-29T07:05:47.087Z,14.65
2019-03-29T07:08:20.541Z,15.06
2019-03-29T07:10:53.951Z,15.66
2019-03-29T07:13:27.295Z,16.36
2019-03-29T07:16:00.770Z,16.77
2019-03-29T07:18:34.235Z,17.08
2019-03-29T07:21:20.953Z,17.23
2019-03-29T07:23:42.986Z,17.29
2019-03-29T07:26:16.350Z,17.38
2019-03-29T07:28:49.998Z,17.83
2019-03-29T07:31:23.422Z,18.47
2019-03-29T07:33:56.897Z,18.86
2019-03-29T07:36:30.339Z,18.90
2019-03-29T07:39:05.079Z,18.81
2019-03-29T07:41:38.501Z,18.77
2019-03-29T07:44:11.988Z,18.99
2019-03-29T07:46:45.492Z,19.11
2019-03-29T07:49:19.001Z,19.12
2019-03-29T07:51:52.414Z,19.03
2019-03-29T07:54:25.958Z,18.90
2019-03-29T07:56:59.313Z,18.92
2019-03-29T07:59:32.824Z,18.90
2019-03-29T08:02:06.304Z,18.96
2019-03-29T08:04:39.829Z,18.92
2019-03-29T08:07:26.355Z,18.71
2019-03-29T08:09:48.831Z,18.51
2019-03-29T08:12:22.526Z,18.18
2019-03-29T08:14:56.049Z,17.86
2019-03-29T08:17:29.501Z,17.69
2019-03-29T08:20:36.660Z,17.53
2019-03-29T08:22:38.423Z,17.53
2019-03-29T08:25:11.900Z,17.40
2019-03-29T08:27:45.380Z,17.25
2019-03-29T08:30:18.914Z,18.10
2019-03-29T08:32:52.399Z,19.16
2019-03-29T08:35:25.806Z,19.23
2019-03-29T08:37:59.234Z,19.41
2019-03-29T08:40:32.692Z,19.06
2019-03-29T08:43:06.084Z,18.72
2019-03-29T08:45:39.551Z,18.40
2019-03-29T08:48:13.057Z,18.48
2019-03-29T08:50:46.579Z,18.28
2019-03-29T08:53:20.012Z,18.33
2019-03-29T08:55:53.482Z,18.23
2019-03-29T08:58:26.915Z,18.13
2019-03-29T09:01:00.463Z,18.27
2019-03-29T09:03:33.922Z,18.24
2019-03-29T09:06:07.470Z,18.26
2019-03-29T09:08:40.885Z,18.32
2019-03-29T09:11:14.339Z,18.39
2019-03-29T09:13:47.841Z,18.79
2019-03-29T09:16:21.295Z,19.74
2019-03-29T09:18:54.810Z,19.83
2019-03-29T09:21:28.285Z,19.53
2019-03-29T09:24:01.756Z,19.61
2019-03-29T09:26:35.307Z,21.81
2019-03-29T09:29:08.756Z,23.96
2019-03-29T09:31:42.294Z,24.46
2019-03-29T09:34:15.710Z,23.53
2019-03-29T09:36:49.204Z,22.65
2019-03-29T09:39:22.670Z,22.44
2019-03-29T09:41:56.323Z,22.06
2019-03-29T09:44:29.739Z,22.11
2019-03-29T09:47:03.170Z,21.95
2019-03-29T09:49:36.615Z,21.52
2019-03-29T09:52:10.186Z,21.60
2019-03-29T09:54:43.616Z,21.22
2019-03-29T09:57:17.010Z,20.97
2019-03-29T09:59:50.354Z,20.61
2019-03-29T10:02:23.821Z,20.55
2019-03-29T10:04:57.271Z,20.35
2019-03-29T10:07:30.775Z,20.10
2019-03-29T10:10:05.670Z,20.40
2019-03-29T10:12:43.668Z,20.42
2019-03-29T10:15:14.353Z,20.48
2019-03-29T10:17:47.814Z,20.30
2019-03-29T10:20:21.301Z,20.15
2019-03-29T10:22:54.776Z,22.34
2019-03-29T10:25:28.250Z,24.99
2019-03-29T10:28:01.722Z,25.90
2019-03-29T10:30:46.285Z,25.75
2019-03-29T10:33:18.054Z,24.83
2019-03-29T10:35:52.967Z,24.46
2019-03-29T10:38:26.758Z,24.96
2019-03-29T10:41:00.189Z,25.66
2019-03-29T10:43:33.781Z,26.27
2019-03-29T10:46:07.248Z,26.65
2019-03-29T10:48:40.699Z,25.07
2019-03-29T10:51:14.151Z,24.37
2019-03-29T10:53:47.632Z,24.92
2019-03-29T10:56:33.296Z,24.59
2019-03-29T10:58:56.313Z,23.76
2019-03-29T11:01:29.756Z,23.39
2019-03-29T11:04:03.192Z,23.04
2019-03-29T11:06:36.727Z,22.67
2019-03-29T11:09:10.088Z,21.98
2019-03-29T11:11:43.473Z,22.50
2019-03-29T11:14:16.891Z,22.97
2019-03-29T11:16:50.276Z,22.85
2019-03-29T11:19:23.690Z,22.32
2019-03-29T11:21:57.142Z,22.17
2019-03-29T11:24:30.576Z,22.10
2019-03-29T11:27:04.019Z,22.06
2019-03-29T11:29:37.462Z,22.83
2019-03-29T11:32:10.854Z,24.02
2019-03-29T11:34:44.285Z,23.40
2019-03-29T11:37:17.825Z,23.72
2019-03-29T11:39:51.256Z,24.46
2019-03-29T11:42:24.699Z,24.40
2019-03-29T11:44:58.115Z,23.92
2019-03-29T11:47:31.556Z,23.48
2019-03-29T11:50:05.862Z,22.95
2019-03-29T11:52:39.303Z,22.76
2019-03-29T11:55:12.660Z,23.22
2019-03-29T11:57:46.208Z,24.45
2019-03-29T12:00:22.726Z,24.98
2019-03-29T12:02:56.194Z,26.03
2019-03-29T12:05:29.539Z,26.85
2019-03-29T12:08:03.160Z,26.73
2019-03-29T12:10:36.660Z,26.22
2019-03-29T12:13:10.700Z,27.14
2019-03-29T12:15:44.116Z,26.52
2019-03-29T12:18:17.628Z,25.86
2019-03-29T12:20:54.181Z,26.93
2019-03-29T12:23:26.315Z,28.39
2019-03-29T12:25:59.710Z,28.74
2019-03-29T12:28:33.094Z,28.37
2019-03-29T12:31:06.814Z,27.43
2019-03-29T12:33:40.257Z,26.71
2019-03-29T12:36:13.625Z,26.02
2019-03-29T12:38:47.113Z,26.34
2019-03-29T12:41:20.483Z,26.96
2019-03-29T12:43:55.779Z,27.74
2019-03-29T12:46:32.200Z,29.34
2019-03-29T12:49:04.403Z,27.74
2019-03-29T12:51:37.908Z,26.34
2019-03-29T12:54:12.309Z,26.43
2019-03-29T12:56:45.878Z,27.25
2019-03-29T12:59:19.361Z,27.59
2019-03-29T13:01:52.815Z,27.15
2019-03-29T13:04:26.148Z,27.07
2019-03-29T13:06:59.641Z,27.00
2019-03-29T13:09:33.063Z,27.36
2019-03-29T13:12:06.614Z,28.15
2019-03-29T13:14:39.965Z,27.52
2019-03-29T13:17:13.526Z,26.76
2019-03-29T13:19:46.932Z,27.59
2019-03-29T13:22:20.417Z,28.73
2019-03-29T13:24:53.909Z,27.55
2019-03-29T13:27:27.354Z,26.58
2019-03-29T13:30:00.766Z,26.18
2019-03-29T13:32:34.308Z,25.77
2019-03-29T13:35:08.018Z,25.05
2019-03-29T13:37:41.372Z,24.41
2019-03-29T13:40:14.776Z,24.08
2019-03-29T13:42:48.219Z,23.96
2019-03-29T13:45:21.721Z,23.89
2019-03-29T13:47:55.166Z,23.87
2019-03-29T13:50:28.573Z,23.26
2019-03-29T13:53:02.320Z,23.27
2019-03-29T13:55:35.862Z,23.01
2019-03-29T13:58:09.299Z,23.26
2019-03-29T14:00:42.723Z,23.08
2019-03-29T14:03:16.213Z,23.07
2019-03-29T14:05:49.631Z,22.22
2019-03-29T14:08:23.148Z,22.38
2019-03-29T14:10:56.596Z,22.41
2019-03-29T14:13:30.046Z,22.51
2019-03-29T14:16:03.574Z,22.62
2019-03-29T14:18:36.943Z,22.52
2019-03-29T14:21:10.513Z,22.29
2019-03-29T14:23:43.912Z,22.19
2019-03-29T14:26:17.475Z,22.05
2019-03-29T14:28:51.372Z,21.96
2019-03-29T14:31:25.066Z,21.44
2019-03-29T14:33:58.597Z,21.58
2019-03-29T14:36:32.049Z,21.35
2019-03-29T14:39:06.674Z,21.34
2019-03-29T14:41:40.218Z,21.33
2019-03-29T14:44:13.635Z,21.54
2019-03-29T14:46:47.011Z,21.46
2019-03-29T14:49:20.526Z,21.35
2019-03-29T14:51:53.975Z,21.59
2019-03-29T14:54:27.323Z,21.70
2019-03-29T14:57:01.127Z,22.02
2019-03-29T14:59:34.473Z,21.88
2019-03-29T15:02:07.955Z,21.89
2019-03-29T15:04:41.374Z,21.70
2019-03-29T15:07:14.820Z,21.73
2019-03-29T15:09:48.540Z,21.98
2019-03-29T15:12:21.984Z,22.03
2019-03-29T15:15:05.464Z,21.72
2019-03-29T15:17:30.774Z,21.43
2019-03-29T15:20:06.526Z,21.32
2019-03-29T15:22:40.001Z,21.19
2019-03-29T15:25:13.419Z,21.12
2019-03-29T15:27:46.799Z,21.05
2019-03-29T15:30:20.327Z,20.96
2019-03-29T15:32:53.849Z,20.78
2019-03-29T15:35:27.308Z,20.76
2019-03-29T15:38:00.772Z,20.68
2019-03-29T15:40:34.297Z,20.63
2019-03-29T15:43:07.747Z,20.63
2019-03-29T15:45:41.100Z,20.55
2019-03-29T15:48:14.523Z,20.66
2019-03-29T15:50:47.877Z,20.63
2019-03-29T15:53:21.388Z,20.41
2019-03-29T15:55:54.931Z,20.42
2019-03-29T15:58:29.696Z,20.39
2019-03-29T16:01:03.199Z,20.40
2019-03-29T16:03:36.714Z,20.38
2019-03-29T16:06:10.151Z,20.40
2019-03-29T16:08:43.631Z,20.33
2019-03-29T16:11:17.448Z,20.20
2019-03-29T16:13:50.921Z,20.17
2019-03-29T16:16:24.401Z,20.19
2019-03-29T16:18:57.889Z,20.27
2019-03-29T16:21:31.326Z,20.29
2019-03-29T16:24:04.771Z,20.21
2019-03-29T16:26:38.250Z,20.30
2019-03-29T16:29:11.712Z,20.30
2019-03-29T16:31:45.131Z,20.11
2019-03-29T16:34:18.505Z,20.02
2019-03-29T16:36:52.013Z,20.02
2019-03-29T16:39:25.530Z,19.94
2019-03-29T16:41:58.978Z,19.87
2019-03-29T16:44:32.491Z,19.88
2019-03-29T16:47:05.917Z,19.87
2019-03-29T16:49:39.416Z,19.85
2019-03-29T16:52:12.754Z,19.83
2019-03-29T16:54:46.295Z,19.79
2019-03-29T16:57:19.750Z,19.74
2019-03-29T16:59:53.246Z,19.71
2019-03-29T17:02:26.755Z,19.71
2019-03-29T17:05:00.346Z,19.63
2019-03-29T17:07:34.119Z,19.55
2019-03-29T17:10:07.831Z,19.48
2019-03-29T17:12:41.378Z,19.39
2019-03-29T17:15:15.264Z,19.24
2019-03-29T17:17:48.681Z,19.10
2019-03-29T17:20:22.195Z,19.00
2019-03-29T17:22:55.621Z,18.90
2019-03-29T17:25:29.183Z,18.79
2019-03-29T17:28:02.521Z,18.68
2019-03-29T17:30:38.609Z,18.56
2019-03-29T17:33:12.091Z,18.49
2019-03-29T17:35:45.698Z,18.50
2019-03-29T17:38:19.144Z,18.41
2019-03-29T17:40:52.583Z,18.28
2019-03-29T17:43:25.990Z,18.17
2019-03-29T17:45:59.452Z,18.06
2019-03-29T17:48:32.893Z,17.99
2019-03-29T17:51:06.488Z,17.85
2019-03-29T17:53:40.042Z,17.75
2019-03-29T17:56:13.659Z,17.60
2019-03-29T17:58:47.182Z,17.48
2019-03-29T18:01:20.541Z,17.38
2019-03-29T18:03:54.074Z,17.25
2019-03-29T18:06:27.516Z,17.14
2019-03-29T18:09:00.909Z,17.02
2019-03-29T18:11:34.380Z,16.89
2019-03-29T18:14:07.806Z,16.78
2019-03-29T18:16:41.174Z,16.70
2019-03-29T18:19:14.621Z,16.56
2019-03-29T18:21:48.033Z,16.46
2019-03-29T18:24:21.485Z,16.40
2019-03-29T18:26:54.858Z,16.29
2019-03-29T18:29:28.308Z,16.20
2019-03-29T18:32:01.827Z,16.10
2019-03-29T18:34:37.685Z,15.99
2019-03-29T18:37:11.606Z,15.87
2019-03-29T18:39:45.608Z,15.86
2019-03-29T18:42:18.954Z,15.66
2019-03-29T18:44:52.399Z,15.54
2019-03-29T18:47:25.970Z,15.43
2019-03-29T18:49:59.352Z,15.34
2019-03-29T18:52:33.270Z,15.24
2019-03-29T18:55:07.315Z,15.17
2019-03-29T18:57:40.758Z,15.03
2019-03-29T19:00:14.516Z,14.93
2019-03-29T19:02:47.956Z,14.85
2019-03-29T19:05:25.635Z,14.77
2019-03-29T19:07:59.110Z,14.70
2019-03-29T19:10:32.630Z,14.62
2019-03-29T19:13:06.182Z,14.54
2019-03-29T19:15:39.726Z,14.42
2019-03-29T19:18:13.257Z,14.28
2019-03-29T19:20:46.703Z,14.16
2019-03-29T19:23:20.641Z,14.11
2019-03-29T19:25:54.080Z,14.05
2019-03-29T19:28:27.600Z,13.96
2019-03-29T19:31:01.141Z,13.88
2019-03-29T19:33:34.683Z,13.79
2019-03-29T19:36:08.620Z,13.72
2019-03-29T19:38:42.317Z,13.66
2019-03-29T19:41:15.964Z,13.56
2019-03-29T19:43:51.563Z,13.43
2019-03-29T19:46:25.496Z,13.33
2019-03-29T19:48:59.036Z,13.30
2019-03-29T19:51:33.107Z,13.26
2019-03-29T19:54:07.869Z,13.19
2019-03-29T19:56:41.916Z,13.14
2019-03-29T19:59:15.354Z,13.05
2019-03-29T20:01:49.068Z,12.98
2019-03-29T20:04:22.491Z,12.84
2019-03-29T20:06:56.208Z,12.79
2019-03-29T20:09:29.781Z,12.77
2019-03-29T20:12:03.302Z,12.73
2019-03-29T20:14:36.850Z,12.66
2019-03-29T20:17:10.325Z,12.60
2019-03-29T20:19:43.740Z,12.56
2019-03-29T20:22:17.143Z,12.50
2019-03-29T20:24:50.709Z,12.45
2019-03-29T20:27:24.308Z,12.38
2019-03-29T20:29:57.810Z,12.36
2019-03-29T20:32:31.293Z,12.25
2019-03-29T20:35:06.101Z,12.18
2019-03-29T20:37:39.539Z,12.08
2019-03-29T20:40:13.015Z,12.02
2019-03-29T20:42:46.527Z,11.96
2019-03-29T20:45:19.929Z,11.92
2019-03-29T20:47:53.491Z,11.86
2019-03-29T20:50:27.056Z,11.81
2019-03-29T20:53:00.497Z,11.76
2019-03-29T20:55:33.876Z,11.70
2019-03-29T20:58:07.327Z,11.64
2019-03-29T21:00:40.906Z,11.60
2019-03-29T21:03:14.505Z,11.55
2019-03-29T21:05:47.973Z,11.50
2019-03-29T21:08:21.392Z,11.45
2019-03-29T21:10:56.502Z,11.40
2019-03-29T21:13:30.292Z,11.36
2019-03-29T21:16:03.728Z,11.30
2019-03-29T21:18:37.255Z,11.24
2019-03-29T21:21:10.730Z,11.18
2019-03-29T21:23:47.092Z,11.13
2019-03-29T21:26:19.297Z,11.10
2019-03-29T21:28:53.152Z,11.07
2019-03-29T21:31:26.818Z,11.00
2019-03-29T21:34:00.400Z,10.95
2019-03-29T21:36:33.897Z,10.89
2019-03-29T21:39:09.230Z,10.85
2019-03-29T21:41:42.792Z,10.80
2019-03-29T21:44:16.206Z,10.75
2019-03-29T21:46:49.900Z,10.70
2019-03-29T21:49:23.384Z,10.65
2019-03-29T21:51:56.945Z,10.61
2019-03-29T21:54:30.427Z,10.55
2019-03-29T21:57:03.950Z,10.45
2019-03-29T21:59:37.420Z,10.35
2019-03-29T22:02:10.926Z,10.26
2019-03-29T22:04:44.616Z,10.19
2019-03-29T22:07:18.074Z,10.14
2019-03-29T22:09:51.530Z,10.11
2019-03-29T22:12:24.973Z,10.06
2019-03-29T22:14:58.535Z,9.97
2019-03-29T22:17:32.185Z,9.90
2019-03-29T22:20:10.373Z,9.82
2019-03-29T22:22:43.861Z,9.66
2019-03-29T22:25:17.565Z,9.55
2019-03-29T22:27:51.391Z,9.52
2019-03-29T22:30:24.796Z,9.49
2019-03-29T22:32:58.418Z,9.52
2019-03-29T22:35:31.823Z,9.53
2019-03-29T22:38:05.314Z,9.35
2019-03-29T22:40:38.709Z,9.28
2019-03-29T22:43:12.120Z,9.23
2019-03-29T22:45:46.018Z,9.14
2019-03-29T22:48:19.456Z,9.16
2019-03-29T22:50:52.793Z,9.29
2019-03-29T22:53:26.436Z,9.34
2019-03-29T22:55:59.997Z,9.30
2019-03-29T22:58:33.646Z,9.30
2019-03-29T23:01:07.247Z,9.24
2019-03-29T23:03:41.057Z,9.26
2019-03-29T23:06:14.483Z,9.24
2019-03-29T23:08:47.938Z,9.21
2019-03-29T23:11:21.529Z,9.17
2019-03-29T23:13:54.970Z,9.01
2019-03-29T23:16:30.370Z,8.97
2019-03-29T23:19:06.887Z,8.85
2019-03-29T23:21:38.884Z,8.79
2019-03-29T23:24:12.447Z,8.69
2019-03-29T23:26:45.921Z,8.74
2019-03-29T23:29:19.351Z,8.73
2019-03-29T23:31:52.953Z,8.76
2019-03-29T23:34:26.448Z,8.78
2019-03-29T23:36:59.879Z,8.78
2019-03-29T23:39:33.249Z,8.77
2019-03-29T23:42:06.854Z,8.73
2019-03-29T23:44:40.256Z,8.71
2019-03-29T23:47:13.756Z,8.69
2019-03-29T23:49:47.218Z,8.70
2019-03-29T23:52:20.630Z,8.70
2019-03-29T23:54:54.138Z,8.71
2019-03-29T23:57:27.544Z,8.69
